createdAt,value
2022-11-30T00:01:20.664Z,3.60
2022-11-30T00:03:47.908Z,4.57
2022-11-30T00:06:17.242Z,3.60
2022-11-30T00:08:44.271Z,3.40
2022-11-30T00:11:18.213Z,3.83
2022-11-30T00:13:45.728Z,3.92
2022-11-30T00:16:12.547Z,3.83
2022-11-30T00:18:39.652Z,4.90
2022-11-30T00:21:10.885Z,4.38
2022-11-30T00:26:08.277Z,4.20
2022-11-30T00:28:36.211Z,3.88
2022-11-30T00:31:05.825Z,4.88
2022-11-30T00:33:34.491Z,3.85
2022-11-30T00:36:22.949Z,3.67
2022-11-30T00:38:51.603Z,4.00
2022-11-30T00:41:19.921Z,4.28
2022-11-30T00:43:46.890Z,3.70
2022-11-30T00:46:14.698Z,4.25
2022-11-30T00:48:42.265Z,4.65
2022-11-30T00:51:10.697Z,4.72
2022-11-30T00:53:41.317Z,4.18
2022-11-30T00:56:09.192Z,5.03
2022-11-30T00:58:36.457Z,3.75
2022-11-30T01:01:03.509Z,4.72
2022-11-30T01:03:30.677Z,4.72
2022-11-30T01:06:05.658Z,5.35
2022-11-30T01:08:32.889Z,4.90
2022-11-30T01:11:07.393Z,5.20
2022-11-30T01:13:34.413Z,4.00
2022-11-30T01:16:01.316Z,4.10
2022-11-30T01:18:28.216Z,3.85
2022-11-30T01:20:55.111Z,4.63
2022-11-30T01:23:22.029Z,4.50
2022-11-30T01:25:55.859Z,3.92
2022-11-30T01:28:22.883Z,4.25
2022-11-30T01:30:57.939Z,3.90
2022-11-30T01:33:25.075Z,3.83
2022-11-30T01:36:10.127Z,4.63
2022-11-30T01:38:39.954Z,4.35
2022-11-30T01:41:08.144Z,3.95
2022-11-30T01:43:40.964Z,4.40
2022-11-30T01:46:40.244Z,4.70
2022-11-30T01:49:31.342Z,4.75
2022-11-30T01:52:03.799Z,4.38
2022-11-30T01:54:37.039Z,4.18
2022-11-30T01:57:20.293Z,4.80
2022-11-30T01:59:50.626Z,4.07
2022-11-30T02:02:25.322Z,4.10
2022-11-30T02:04:52.208Z,4.20
2022-11-30T02:07:19.160Z,4.32
2022-11-30T02:09:46.129Z,3.95
2022-11-30T02:12:26.816Z,4.38
2022-11-30T02:14:59.075Z,4.78
2022-11-30T02:17:34.544Z,4.00
2022-11-30T02:20:19.696Z,4.93
2022-11-30T02:23:05.032Z,3.92
2022-11-30T02:25:55.245Z,4.28
2022-11-30T02:28:40.824Z,3.55
2022-11-30T02:31:12.046Z,3.85
2022-11-30T02:33:41.370Z,4.45
2022-11-30T02:36:10.180Z,4.05
2022-11-30T02:38:38.463Z,4.30
2022-11-30T02:41:05.428Z,4.15
2022-11-30T02:43:33.987Z,3.63
2022-11-30T02:46:30.608Z,3.65
2022-11-30T02:49:06.774Z,3.92
2022-11-30T02:51:35.992Z,3.72
2022-11-30T02:54:03.384Z,5.05
2022-11-30T02:56:30.918Z,3.53
2022-11-30T02:58:57.788Z,3.65
2022-11-30T03:01:25.948Z,3.90
2022-11-30T03:03:52.892Z,3.90
2022-11-30T03:06:19.713Z,4.22
2022-11-30T03:08:46.540Z,3.58
2022-11-30T03:11:13.371Z,4.65
2022-11-30T03:13:40.207Z,3.65
2022-11-30T03:16:12.280Z,3.40
2022-11-30T03:18:39.797Z,4.30
2022-11-30T03:21:08.191Z,3.38
2022-11-30T03:23:35.860Z,3.15
2022-11-30T03:26:04.195Z,3.67
2022-11-30T03:28:31.083Z,3.85
2022-11-30T03:30:58.005Z,3.08
2022-11-30T03:33:25.342Z,3.92
2022-11-30T03:36:18.494Z,3.58
2022-11-30T03:38:45.376Z,5.10
2022-11-30T03:41:14.600Z,3.60
2022-11-30T03:43:41.467Z,4.00
2022-11-30T03:46:08.395Z,3.70
2022-11-30T03:48:38.554Z,3.30
2022-11-30T03:51:06.039Z,3.88
2022-11-30T03:53:32.857Z,3.85
2022-11-30T03:56:02.363Z,3.45
2022-11-30T03:58:29.747Z,3.75
2022-11-30T04:01:09.871Z,3.45
2022-11-30T04:03:38.110Z,3.63
2022-11-30T04:06:06.461Z,3.78
2022-11-30T04:08:33.729Z,3.53
2022-11-30T04:11:02.376Z,3.78
2022-11-30T04:13:30.408Z,3.63
2022-11-30T04:15:57.388Z,3.92
2022-11-30T04:18:26.930Z,6.00
2022-11-30T04:20:55.554Z,4.32
2022-11-30T04:23:24.196Z,4.25
2022-11-30T04:25:52.153Z,3.78
2022-11-30T04:28:19.524Z,4.18
2022-11-30T04:30:46.897Z,4.35
2022-11-30T04:33:15.610Z,9.05
2022-11-30T04:35:46.143Z,4.40
2022-11-30T04:38:13.235Z,3.97
2022-11-30T04:40:41.308Z,4.28
2022-11-30T04:43:08.826Z,3.95
2022-11-30T04:45:36.222Z,4.22
2022-11-30T04:48:03.924Z,4.97
2022-11-30T04:50:30.747Z,3.47
2022-11-30T04:52:57.732Z,3.40
2022-11-30T04:55:25.420Z,3.90
2022-11-30T04:57:52.532Z,4.32
2022-11-30T05:00:20.399Z,3.83
2022-11-30T05:02:52.450Z,4.60
2022-11-30T05:05:20.534Z,4.57
2022-11-30T05:07:59.198Z,3.55
2022-11-30T05:10:27.413Z,4.90
2022-11-30T05:12:54.518Z,3.78
2022-11-30T05:15:21.951Z,3.97
2022-11-30T05:17:49.013Z,4.57
2022-11-30T05:20:16.204Z,3.80
2022-11-30T05:22:43.102Z,3.88
2022-11-30T05:25:10.152Z,4.40
2022-11-30T05:27:37.849Z,3.33
2022-11-30T05:30:06.843Z,4.03
2022-11-30T05:32:33.671Z,3.83
2022-11-30T05:35:00.459Z,3.38
2022-11-30T05:37:27.353Z,3.80
2022-11-30T05:39:54.205Z,3.38
2022-11-30T05:42:21.354Z,3.33
2022-11-30T05:44:48.518Z,3.55
2022-11-30T05:47:15.778Z,3.83
2022-11-30T05:49:42.737Z,3.80
2022-11-30T05:52:09.562Z,4.00
2022-11-30T05:54:36.395Z,4.50
2022-11-30T05:57:03.383Z,5.70
2022-11-30T05:59:30.234Z,6.38
2022-11-30T06:01:57.257Z,3.28
2022-11-30T06:04:24.247Z,4.18
2022-11-30T06:06:52.516Z,10.50
2022-11-30T06:09:19.341Z,7.57
2022-11-30T06:11:46.198Z,7.15
2022-11-30T06:14:13.057Z,5.32
2022-11-30T06:16:40.175Z,6.22
2022-11-30T06:19:07.398Z,5.43
2022-11-30T06:21:34.570Z,7.53
2022-11-30T06:24:01.389Z,3.38
2022-11-30T06:26:28.458Z,9.38
2022-11-30T06:28:55.486Z,3.92
2022-11-30T06:31:22.461Z,3.95
2022-11-30T06:33:49.466Z,6.03
2022-11-30T06:36:21.680Z,3.65
2022-11-30T06:38:48.471Z,5.88
2022-11-30T06:41:15.393Z,4.53
2022-11-30T06:43:42.356Z,3.42
2022-11-30T06:46:09.875Z,3.50
2022-11-30T06:48:36.922Z,6.10
2022-11-30T06:51:08.396Z,5.78
2022-11-30T06:53:35.699Z,9.93
2022-11-30T06:56:10.633Z,16.30
2022-11-30T06:58:39.714Z,13.80
2022-11-30T07:01:08.939Z,4.70
2022-11-30T07:03:36.770Z,6.57
2022-11-30T07:06:08.491Z,4.88
2022-11-30T07:08:35.468Z,5.80
2022-11-30T07:11:02.503Z,6.43
2022-11-30T07:13:30.490Z,3.60
2022-11-30T07:15:57.460Z,5.15
2022-11-30T07:18:30.169Z,7.05
2022-11-30T07:21:03.644Z,4.78
2022-11-30T07:23:54.300Z,5.93
2022-11-30T07:26:22.864Z,7.35
2022-11-30T07:28:55.008Z,16.60
2022-11-30T07:31:26.661Z,4.45
2022-11-30T07:33:54.110Z,5.10
2022-11-30T07:36:23.856Z,4.75
2022-11-30T07:38:50.809Z,6.90
2022-11-30T07:41:18.391Z,13.43
2022-11-30T07:43:45.368Z,14.13
2022-11-30T07:46:14.383Z,5.20
2022-11-30T07:48:42.245Z,5.95
2022-11-30T07:51:13.640Z,8.98
2022-11-30T07:53:41.079Z,11.30
2022-11-30T07:56:10.848Z,6.57
2022-11-30T07:58:38.542Z,4.95
2022-11-30T08:01:11.326Z,5.63
2022-11-30T08:03:38.513Z,5.93
2022-11-30T08:06:13.990Z,5.80
2022-11-30T08:08:43.792Z,5.60
2022-11-30T08:11:14.396Z,3.58
2022-11-30T08:13:41.894Z,4.07
2022-11-30T08:16:15.600Z,3.50
2022-11-30T08:18:43.050Z,5.80
2022-11-30T08:21:12.048Z,4.15
2022-11-30T08:23:41.544Z,3.75
2022-11-30T08:26:19.256Z,3.20
2022-11-30T08:28:47.818Z,3.25
2022-11-30T08:31:24.599Z,5.10
2022-11-30T08:33:58.850Z,3.33
2022-11-30T08:36:27.413Z,4.32
2022-11-30T08:38:54.504Z,3.83
2022-11-30T08:41:23.251Z,3.40
2022-11-30T08:43:51.567Z,4.70
2022-11-30T08:46:49.706Z,3.30
2022-11-30T08:54:45.642Z,3.20
2022-11-30T08:57:14.194Z,3.22
2022-11-30T08:59:41.160Z,4.50
2022-11-30T09:02:11.220Z,3.63
2022-11-30T09:04:38.241Z,3.35
2022-11-30T09:07:05.611Z,5.00
2022-11-30T09:09:33.191Z,3.08
2022-11-30T09:12:00.448Z,3.78
2022-11-30T09:14:27.679Z,3.10
2022-11-30T09:16:55.579Z,3.15
2022-11-30T09:19:22.739Z,3.97
2022-11-30T09:21:52.103Z,3.08
2022-11-30T09:24:19.655Z,3.42
2022-11-30T09:26:46.828Z,3.38
2022-11-30T09:29:13.787Z,4.20
2022-11-30T09:31:40.881Z,4.10
2022-11-30T09:34:08.039Z,3.30
2022-11-30T09:36:36.897Z,3.13
2022-11-30T09:39:03.958Z,3.53
2022-11-30T09:41:45.765Z,3.50
2022-11-30T09:44:46.352Z,3.20
2022-11-30T09:47:38.322Z,3.63
2022-11-30T09:50:15.819Z,3.72
2022-11-30T09:53:32.437Z,4.40
2022-11-30T09:56:00.949Z,4.38
2022-11-30T09:58:43.085Z,5.65
2022-11-30T10:01:19.061Z,4.13
2022-11-30T10:03:47.317Z,4.78
2022-11-30T10:06:32.205Z,5.38
2022-11-30T10:09:25.685Z,5.45
2022-11-30T10:11:59.064Z,4.75
2022-11-30T10:15:00.162Z,5.78
2022-11-30T10:20:12.723Z,5.88
2022-11-30T10:22:56.242Z,4.55
2022-11-30T10:25:24.800Z,6.15
2022-11-30T10:27:53.505Z,4.95
2022-11-30T10:30:22.991Z,4.78
2022-11-30T10:32:55.694Z,5.57
2022-11-30T10:35:37.639Z,5.28
2022-11-30T10:38:28.255Z,6.60
2022-11-30T10:41:05.648Z,4.63
2022-11-30T10:44:11.099Z,6.05
2022-11-30T10:46:44.056Z,6.78
2022-11-30T10:49:19.052Z,5.68
2022-11-30T10:51:52.859Z,6.35
2022-11-30T10:54:23.242Z,6.55
2022-11-30T10:56:50.212Z,6.97
2022-11-30T10:59:22.924Z,6.15
2022-11-30T11:01:50.408Z,6.97
2022-11-30T11:04:25.680Z,6.07
2022-11-30T11:06:59.488Z,5.13
2022-11-30T11:09:50.629Z,7.13
2022-11-30T11:12:21.792Z,5.93
2022-11-30T11:14:48.919Z,6.38
2022-11-30T11:17:18.759Z,6.70
2022-11-30T11:19:48.292Z,6.00
2022-11-30T11:22:17.081Z,6.45
2022-11-30T11:24:44.939Z,7.68
2022-11-30T11:27:29.890Z,4.85
2022-11-30T11:30:09.417Z,6.72
2022-11-30T11:32:36.430Z,5.85
2022-11-30T11:35:03.683Z,5.78
2022-11-30T11:37:34.032Z,5.40
2022-11-30T11:40:08.906Z,5.37
2022-11-30T11:43:00.749Z,6.43
2022-11-30T11:45:35.382Z,5.85
2022-11-30T11:48:28.879Z,6.47
2022-11-30T11:51:08.639Z,4.22
2022-11-30T11:53:44.048Z,4.80
2022-11-30T11:56:22.677Z,6.85
2022-11-30T11:58:58.436Z,4.80
2022-11-30T12:02:06.125Z,4.47
2022-11-30T12:04:56.804Z,3.83
2022-11-30T12:07:32.946Z,4.95
2022-11-30T12:13:18.249Z,6.22
2022-11-30T12:15:51.109Z,4.68
2022-11-30T12:18:25.374Z,4.82
2022-11-30T12:21:07.993Z,5.18
2022-11-30T12:24:04.188Z,5.25
2022-11-30T12:26:33.946Z,4.78
2022-11-30T12:29:18.818Z,4.97
2022-11-30T12:32:01.883Z,5.50
2022-11-30T12:34:43.239Z,5.88
2022-11-30T12:40:20.891Z,4.43
2022-11-30T12:42:53.549Z,4.05
2022-11-30T12:45:37.792Z,5.10
2022-11-30T12:48:35.424Z,4.32
2022-11-30T12:51:26.411Z,4.03
2022-11-30T12:54:23.282Z,4.18
2022-11-30T12:57:01.679Z,4.97
2022-11-30T13:00:09.573Z,4.07
2022-11-30T13:02:48.478Z,3.08
2022-11-30T13:05:30.952Z,4.65
2022-11-30T13:08:26.747Z,3.10
2022-11-30T13:11:00.499Z,3.55
2022-11-30T13:13:32.627Z,3.47
2022-11-30T13:16:02.356Z,3.20
2022-11-30T13:18:30.596Z,3.10
2022-11-30T13:21:07.220Z,2.75
2022-11-30T13:23:48.979Z,3.40
2022-11-30T13:26:31.359Z,3.95
2022-11-30T13:29:06.262Z,3.53
2022-11-30T13:31:48.667Z,4.50
2022-11-30T13:34:33.792Z,3.75
2022-11-30T13:37:11.923Z,2.65
2022-11-30T13:39:58.473Z,2.70
2022-11-30T13:42:35.946Z,5.10
2022-11-30T13:45:15.449Z,5.80
2022-11-30T13:47:53.061Z,3.15
2022-11-30T13:50:26.285Z,3.90
2022-11-30T13:52:59.305Z,3.03
2022-11-30T13:56:17.424Z,3.60
2022-11-30T13:59:29.326Z,7.03
2022-11-30T14:02:33.607Z,3.42
2022-11-30T14:05:18.594Z,3.95
2022-11-30T14:07:46.831Z,2.90
2022-11-30T14:10:29.459Z,7.72
2022-11-30T14:13:05.808Z,9.05
2022-11-30T14:15:38.908Z,4.78
2022-11-30T14:18:21.963Z,6.28
2022-11-30T14:20:52.060Z,5.82
2022-11-30T14:23:28.094Z,9.15
2022-11-30T14:25:58.091Z,2.58
2022-11-30T14:28:33.363Z,3.90
2022-11-30T14:31:01.000Z,11.63
2022-11-30T14:33:40.112Z,3.78
2022-11-30T14:36:08.668Z,8.15
2022-11-30T14:38:41.428Z,5.75
2022-11-30T14:41:21.597Z,8.10
2022-11-30T14:44:03.567Z,3.72
2022-11-30T14:46:33.995Z,3.55
2022-11-30T14:49:15.496Z,4.60
2022-11-30T14:51:45.517Z,3.20
2022-11-30T14:54:17.156Z,6.45
2022-11-30T14:56:49.192Z,4.30
2022-11-30T14:59:38.021Z,5.05
2022-11-30T15:02:12.337Z,10.77
2022-11-30T15:04:39.338Z,6.90
2022-11-30T15:07:13.737Z,8.20
2022-11-30T15:09:43.862Z,6.28
2022-11-30T15:12:11.074Z,8.45
2022-11-30T15:14:38.119Z,7.57
2022-11-30T15:17:14.941Z,5.18
2022-11-30T15:19:48.870Z,5.53
2022-11-30T15:22:23.026Z,10.65
2022-11-30T15:24:50.550Z,4.00
2022-11-30T15:27:24.114Z,9.32
2022-11-30T15:30:00.243Z,8.18
2022-11-30T15:32:27.736Z,5.45
2022-11-30T15:34:57.740Z,5.22
2022-11-30T15:37:33.072Z,7.82
2022-11-30T15:40:02.592Z,3.38
2022-11-30T15:42:40.793Z,4.22
2022-11-30T15:45:23.600Z,4.38
2022-11-30T15:47:52.375Z,2.75
2022-11-30T15:50:31.324Z,9.55
2022-11-30T15:53:04.131Z,4.07
2022-11-30T15:55:45.559Z,5.32
2022-11-30T15:58:30.960Z,4.80
2022-11-30T16:01:01.059Z,3.85
2022-11-30T16:03:28.017Z,3.83
2022-11-30T16:06:00.598Z,6.47
2022-11-30T16:08:28.562Z,6.07
2022-11-30T16:10:55.590Z,2.90
2022-11-30T16:13:23.862Z,5.43
2022-11-30T16:15:52.328Z,9.18
2022-11-30T16:18:25.634Z,2.20
2022-11-30T16:20:56.757Z,4.18
2022-11-30T16:23:23.660Z,7.78
2022-11-30T16:25:51.145Z,7.45
2022-11-30T16:28:20.321Z,10.55
2022-11-30T16:30:48.651Z,8.35
2022-11-30T16:33:16.692Z,6.43
2022-11-30T16:36:01.458Z,5.28
2022-11-30T16:38:29.080Z,6.47
2022-11-30T16:40:56.463Z,4.05
2022-11-30T16:43:26.017Z,8.10
2022-11-30T16:45:53.016Z,4.97
2022-11-30T16:48:20.434Z,8.38
2022-11-30T16:50:47.473Z,11.98
2022-11-30T16:53:15.444Z,3.75
2022-11-30T16:55:43.073Z,11.77
2022-11-30T16:58:10.028Z,13.82
2022-11-30T17:00:39.801Z,8.25
2022-11-30T17:03:24.255Z,8.40
2022-11-30T17:05:51.208Z,39.80
2022-11-30T17:08:18.282Z,14.05
2022-11-30T17:10:45.328Z,9.80
2022-11-30T17:13:15.988Z,10.30
2022-11-30T17:15:42.972Z,13.85
2022-11-30T17:18:10.481Z,4.75
2022-11-30T17:20:38.172Z,6.00
2022-11-30T17:23:06.467Z,8.98
2022-11-30T17:25:33.687Z,14.00
2022-11-30T17:28:01.050Z,20.75
2022-11-30T17:30:28.451Z,12.90
2022-11-30T17:32:55.817Z,18.25
2022-11-30T17:35:22.794Z,19.77
2022-11-30T17:37:50.068Z,9.80
2022-11-30T17:40:17.447Z,11.15
2022-11-30T17:42:44.828Z,7.65
2022-11-30T17:45:12.264Z,15.63
2022-11-30T17:47:39.587Z,14.68
2022-11-30T17:50:08.008Z,11.30
2022-11-30T17:52:35.367Z,4.93
2022-11-30T17:55:02.681Z,10.07
2022-11-30T17:57:29.730Z,6.32
2022-11-30T17:59:56.945Z,5.00
2022-11-30T18:02:24.804Z,9.70
2022-11-30T18:04:53.175Z,10.90
2022-11-30T18:07:21.937Z,9.43
2022-11-30T18:09:52.662Z,8.13
2022-11-30T18:12:35.328Z,10.32
2022-11-30T18:15:02.655Z,9.15
2022-11-30T18:17:32.103Z,7.60
2022-11-30T18:20:03.749Z,10.80
2022-11-30T18:22:38.596Z,8.77
2022-11-30T18:25:06.108Z,7.93
2022-11-30T18:27:33.621Z,7.68
2022-11-30T18:30:02.013Z,7.88
2022-11-30T18:35:01.082Z,8.57
2022-11-30T18:37:28.753Z,12.25
2022-11-30T18:39:56.052Z,8.52
2022-11-30T18:42:23.261Z,7.68
2022-11-30T18:44:50.704Z,17.00
2022-11-30T18:47:17.933Z,32.20
2022-11-30T18:49:44.991Z,36.47
2022-11-30T18:52:11.931Z,30.38
2022-11-30T18:54:39.158Z,56.90
2022-11-30T18:57:06.406Z,72.53
2022-11-30T18:59:33.666Z,56.88
2022-11-30T19:02:01.578Z,63.35
2022-11-30T19:04:28.905Z,90.38
2022-11-30T19:06:55.953Z,67.95
2022-11-30T19:09:24.295Z,52.83
2022-11-30T19:11:52.709Z,52.67
2022-11-30T19:14:20.615Z,53.63
2022-11-30T19:16:48.876Z,50.50
2022-11-30T19:19:16.365Z,47.25
2022-11-30T19:21:48.209Z,49.22
2022-11-30T19:24:16.768Z,42.88
2022-11-30T19:26:44.137Z,48.17
2022-11-30T19:29:12.534Z,42.22
2022-11-30T19:31:40.041Z,34.10
2022-11-30T19:34:12.986Z,34.08
2022-11-30T19:36:41.107Z,31.73
2022-11-30T19:39:10.298Z,31.83
2022-11-30T19:41:37.597Z,26.88
2022-11-30T19:44:05.947Z,24.80
2022-11-30T19:46:34.982Z,25.10
2022-11-30T19:49:02.664Z,24.25
2022-11-30T19:51:31.573Z,20.13
2022-11-30T19:54:01.871Z,20.33
2022-11-30T19:56:31.719Z,18.80
2022-11-30T19:59:04.440Z,17.65
2022-11-30T20:01:34.925Z,20.27
2022-11-30T20:04:02.842Z,19.40
2022-11-30T20:06:37.861Z,25.05
2022-11-30T20:09:07.002Z,21.70
2022-11-30T20:11:34.737Z,27.70
2022-11-30T20:14:02.077Z,22.65
2022-11-30T20:16:29.688Z,26.35
2022-11-30T20:19:01.486Z,15.70
2022-11-30T20:21:32.321Z,14.13
2022-11-30T20:24:02.278Z,14.35
2022-11-30T20:26:39.000Z,16.05
2022-11-30T20:29:08.828Z,12.32
2022-11-30T20:31:37.565Z,10.73
2022-11-30T20:34:05.656Z,11.55
2022-11-30T20:36:32.939Z,12.43
2022-11-30T20:39:00.517Z,9.68
2022-11-30T20:41:35.597Z,8.68
2022-11-30T20:44:02.906Z,10.13
2022-11-30T20:46:36.021Z,9.27
2022-11-30T20:49:05.038Z,8.07
2022-11-30T20:51:35.060Z,7.57
2022-11-30T20:54:05.955Z,7.93
2022-11-30T20:56:35.690Z,7.55
2022-11-30T20:59:05.409Z,7.60
2022-11-30T21:01:34.667Z,8.85
2022-11-30T21:04:01.980Z,7.28
2022-11-30T21:06:33.286Z,7.80
2022-11-30T21:09:00.679Z,8.60
2022-11-30T21:11:29.433Z,6.57
2022-11-30T21:13:57.520Z,6.72
2022-11-30T21:16:28.913Z,7.60
2022-11-30T21:18:58.774Z,6.40
2022-11-30T21:21:32.093Z,6.45
2022-11-30T21:24:01.592Z,5.53
2022-11-30T21:26:34.515Z,6.72
2022-11-30T21:29:07.403Z,6.93
2022-11-30T21:31:35.235Z,5.18
2022-11-30T21:34:02.895Z,5.25
2022-11-30T21:36:30.183Z,13.63
2022-11-30T21:39:05.004Z,7.22
2022-11-30T21:41:35.020Z,9.00
2022-11-30T21:44:02.620Z,5.25
2022-11-30T21:46:30.397Z,5.35
2022-11-30T21:48:57.605Z,7.22
2022-11-30T21:51:27.391Z,9.45
2022-11-30T21:53:59.126Z,6.22
2022-11-30T21:56:29.286Z,6.35
2022-11-30T21:58:57.410Z,5.85
2022-11-30T22:01:35.002Z,6.22
2022-11-30T22:04:04.321Z,6.85
2022-11-30T22:06:34.399Z,5.93
2022-11-30T22:09:03.740Z,5.55
2022-11-30T22:11:31.493Z,5.20
2022-11-30T22:13:58.816Z,5.15
2022-11-30T22:16:32.432Z,4.25
2022-11-30T22:19:01.579Z,6.45
2022-11-30T22:21:30.887Z,4.18
2022-11-30T22:23:57.940Z,5.28
2022-11-30T22:26:27.296Z,4.32
2022-11-30T22:28:59.807Z,6.10
2022-11-30T22:31:38.791Z,6.50
2022-11-30T22:34:06.768Z,6.38
2022-11-30T22:36:36.897Z,4.65
2022-11-30T22:39:06.538Z,4.90
2022-11-30T22:41:34.565Z,4.60
2022-11-30T22:44:01.759Z,6.90
2022-11-30T22:46:31.465Z,6.53
2022-11-30T22:49:03.027Z,4.25
2022-11-30T22:51:32.923Z,6.53
2022-11-30T22:54:00.654Z,4.57
2022-11-30T22:56:33.877Z,5.05
2022-11-30T22:59:01.740Z,6.22
2022-11-30T23:01:32.031Z,4.97
2022-11-30T23:04:19.609Z,5.67
2022-11-30T23:06:48.773Z,5.57
2022-11-30T23:09:19.406Z,4.95
2022-11-30T23:11:46.684Z,7.07
2022-11-30T23:14:13.890Z,4.50
2022-11-30T23:16:41.098Z,4.70
2022-11-30T23:19:08.923Z,4.57
2022-11-30T23:21:41.385Z,7.18
2022-11-30T23:24:12.799Z,5.38
2022-11-30T23:26:39.872Z,5.45
2022-11-30T23:29:10.032Z,4.85
2022-11-30T23:31:39.898Z,5.03
2022-11-30T23:34:09.300Z,7.30
2022-11-30T23:36:36.567Z,6.88
2022-11-30T23:39:07.732Z,4.68
2022-11-30T23:44:02.033Z,4.40
2022-11-30T23:46:28.979Z,5.03
2022-11-30T23:48:56.119Z,5.47
2022-11-30T23:51:24.170Z,5.07
2022-11-30T23:53:51.180Z,5.82
2022-11-30T23:56:20.174Z,5.32
2022-11-30T23:58:47.628Z,4.68
